createdAt,value
2023-07-07T00:04:22.911Z,99457.96
2023-07-07T00:09:30.527Z,99456.73
2023-07-07T00:14:38.615Z,99462.14
2023-07-07T00:19:48.567Z,99462.92
2023-07-07T00:24:57.501Z,99465.11
2023-07-07T00:30:06.061Z,99463.74
2023-07-07T00:35:13.922Z,99467.06
2023-07-07T00:40:22.339Z,99475.94
2023-07-07T00:51:16.054Z,99475.45
2023-07-07T00:56:28.766Z,99485.52
2023-07-07T01:01:37.965Z,99487.48
2023-07-07T01:06:50.239Z,99494.53
2023-07-07T01:11:57.659Z,99501.15
2023-07-07T01:17:16.867Z,99503.11
2023-07-07T01:22:57.840Z,99500.65
2023-07-07T01:28:37.946Z,99503.31
2023-07-07T01:33:46.944Z,99501.86
2023-07-07T01:38:54.742Z,99503.26
2023-07-07T01:44:10.836Z,99504.32
2023-07-07T01:49:23.461Z,99512.66
2023-07-07T01:54:34.760Z,99518.39
2023-07-07T01:59:44.086Z,99519.73
2023-07-07T02:04:52.248Z,99516.83
2023-07-07T02:09:59.826Z,99520.80
2023-07-07T02:15:09.031Z,99524.42
2023-07-07T02:20:16.921Z,99527.63
2023-07-07T02:25:24.319Z,99530.17
2023-07-07T02:30:31.628Z,99534.65
2023-07-07T02:35:39.089Z,99530.15
2023-07-07T02:40:47.229Z,99531.73
2023-07-07T02:51:31.035Z,99545.08
2023-07-07T02:56:38.460Z,99548.79
2023-07-07T03:01:46.122Z,99557.15
2023-07-07T03:06:53.802Z,99558.55
2023-07-07T03:12:01.602Z,99557.81
2023-07-07T03:17:10.835Z,99561.77
2023-07-07T03:22:18.205Z,99567.22
2023-07-07T03:27:25.537Z,99564.88
2023-07-07T03:32:32.810Z,99566.41
2023-07-07T03:37:41.657Z,99571.38
2023-07-07T03:42:48.978Z,99574.89
2023-07-07T03:52:39.404Z,99574.05
2023-07-07T03:57:46.805Z,99576.10
2023-07-07T04:02:54.599Z,99577.98
2023-07-07T04:08:02.417Z,99581.80
2023-07-07T04:13:09.965Z,99578.09
2023-07-07T04:18:17.954Z,99580.88
2023-07-07T04:23:26.588Z,99583.20
2023-07-07T04:28:34.083Z,99583.54
2023-07-07T04:33:42.822Z,99587.16
2023-07-07T04:38:51.208Z,99589.02
2023-07-07T04:44:01.388Z,99594.20
2023-07-07T04:49:10.479Z,99594.05
2023-07-07T04:54:18.317Z,99593.44
2023-07-07T04:59:25.895Z,99600.61
2023-07-07T05:04:33.715Z,99610.95
2023-07-07T05:09:41.562Z,99605.76
2023-07-07T05:14:49.236Z,99607.13
2023-07-07T05:19:56.901Z,99608.31
2023-07-07T05:25:05.177Z,99611.59
2023-07-07T05:30:14.255Z,99607.43
2023-07-07T05:38:08.426Z,99610.71
2023-07-07T05:43:16.524Z,99620.33
2023-07-07T05:48:24.158Z,99619.84
2023-07-07T05:53:32.334Z,99622.41
2023-07-07T05:58:43.188Z,99622.77
2023-07-07T06:03:51.213Z,99627.25
2023-07-07T06:08:58.971Z,99631.69
2023-07-07T06:24:00.455Z,99636.44
2023-07-07T06:29:08.140Z,99646.16
2023-07-07T06:34:15.765Z,99646.33
2023-07-07T06:39:24.078Z,99649.73
2023-07-07T06:44:34.270Z,99653.52
2023-07-07T06:49:41.971Z,99656.98
2023-07-07T06:54:49.366Z,99655.53
2023-07-07T07:00:23.917Z,99658.44
2023-07-07T07:05:31.841Z,99662.73
2023-07-07T07:10:39.484Z,99663.16
2023-07-07T07:15:46.852Z,99668.45
2023-07-07T07:20:56.942Z,99668.90
2023-07-07T07:26:06.004Z,99670.23
2023-07-07T07:31:14.821Z,99676.52
2023-07-07T07:36:23.006Z,99679.71
2023-07-07T07:41:31.045Z,99681.25
2023-07-07T07:46:38.794Z,99677.51
2023-07-07T07:51:48.639Z,99680.85
2023-07-07T07:56:56.335Z,99683.64
2023-07-07T08:02:04.336Z,99684.67
2023-07-07T08:07:12.263Z,99684.36
2023-07-07T08:12:19.972Z,99684.48
2023-07-07T08:17:28.610Z,99691.07
2023-07-07T08:22:36.434Z,99688.79
2023-07-07T08:28:06.797Z,99687.49
2023-07-07T08:33:12.119Z,99684.42
2023-07-07T08:38:19.732Z,99685.37
2023-07-07T08:43:29.716Z,99684.67
2023-07-07T08:48:43.864Z,99691.95
2023-07-07T08:59:31.990Z,99694.01
2023-07-07T09:04:51.329Z,99696.48
2023-07-07T09:10:25.570Z,99696.27
2023-07-07T09:15:38.170Z,99692.36
2023-07-07T09:20:48.795Z,99702.83
2023-07-07T09:26:01.632Z,99703.44
2023-07-07T09:31:22.651Z,99701.75
2023-07-07T09:36:36.486Z,99701.48
2023-07-07T09:41:52.972Z,99700.48
2023-07-07T09:47:11.748Z,99696.81
2023-07-07T09:52:40.898Z,99695.95
2023-07-07T09:57:57.033Z,99708.75
2023-07-07T10:03:09.084Z,99697.13
2023-07-07T10:08:17.764Z,99703.88
2023-07-07T10:13:26.253Z,99703.45
2023-07-07T10:24:05.592Z,99690.11
2023-07-07T10:29:17.717Z,99697.00
2023-07-07T10:34:33.146Z,99693.94
2023-07-07T10:39:40.802Z,99687.55
2023-07-07T10:44:48.811Z,99686.51
2023-07-07T10:49:57.690Z,99690.10
2023-07-07T10:55:12.152Z,99687.90
2023-07-07T11:00:38.947Z,99683.46
2023-07-07T11:06:02.611Z,99675.85
2023-07-07T11:11:24.672Z,99673.92
2023-07-07T11:16:41.629Z,99668.88
2023-07-07T11:22:01.673Z,99676.29
2023-07-07T11:27:39.782Z,99670.20
2023-07-07T11:33:00.812Z,99667.46
2023-07-07T11:38:27.632Z,99671.52
2023-07-07T11:44:03.560Z,99670.30
2023-07-07T11:52:49.227Z,99667.20
2023-07-07T11:58:07.759Z,99654.75
2023-07-07T12:03:36.660Z,99655.20
2023-07-07T12:08:52.957Z,99660.38
2023-07-07T12:14:15.571Z,99655.48
2023-07-07T12:19:33.576Z,99651.91
2023-07-07T12:24:49.361Z,99644.63
2023-07-07T12:29:58.508Z,99641.83
2023-07-07T12:35:17.192Z,99642.55
2023-07-07T12:40:26.218Z,99638.89
2023-07-07T12:45:40.290Z,99637.63
2023-07-07T12:50:49.172Z,99640.86
2023-07-07T12:56:15.420Z,99642.41
2023-07-07T13:01:36.955Z,99641.00
2023-07-07T13:06:49.640Z,99638.92
2023-07-07T13:11:59.714Z,99637.72
2023-07-07T13:17:10.970Z,99642.63
2023-07-07T13:22:23.949Z,99648.17
2023-07-07T13:27:33.106Z,99641.35
2023-07-07T13:32:40.896Z,99639.66
2023-07-07T13:37:48.843Z,99638.55
2023-07-07T13:42:57.459Z,99642.68
2023-07-07T13:48:19.834Z,99639.42
2023-07-07T13:53:30.880Z,99629.78
2023-07-07T13:58:44.490Z,99627.66
2023-07-07T14:03:53.833Z,99635.85
2023-07-07T14:09:01.933Z,99632.45
2023-07-07T14:14:10.922Z,99633.41
2023-07-07T14:19:25.985Z,99635.95
2023-07-07T14:24:34.900Z,99636.64
2023-07-07T14:29:44.964Z,99634.38
2023-07-07T14:34:55.460Z,99636.64
2023-07-07T14:40:13.695Z,99626.80
2023-07-07T14:45:31.338Z,99631.56
2023-07-07T14:50:39.504Z,99630.33
2023-07-07T14:55:51.998Z,99622.34
2023-07-07T15:01:09.543Z,99622.52
2023-07-07T15:06:24.203Z,99618.54
2023-07-07T15:11:35.776Z,99618.31
2023-07-07T15:16:44.149Z,99615.23
2023-07-07T15:21:52.370Z,99613.27
2023-07-07T15:26:59.922Z,99606.98
2023-07-07T15:32:13.531Z,99609.05
2023-07-07T15:37:21.365Z,99607.11
2023-07-07T15:42:29.453Z,99608.84
2023-07-07T15:47:38.145Z,99607.55
2023-07-07T15:52:46.018Z,99614.07
2023-07-07T15:57:53.618Z,99606.73
2023-07-07T16:03:01.797Z,99601.81
2023-07-07T16:08:14.316Z,99608.67
2023-07-07T16:13:22.026Z,99607.61
2023-07-07T16:18:30.001Z,99606.89
2023-07-07T16:33:37.599Z,99607.77
2023-07-07T16:38:48.057Z,99607.44
2023-07-07T16:43:57.074Z,99606.08
2023-07-07T16:49:05.183Z,99607.33
2023-07-07T16:54:12.920Z,99606.85
2023-07-07T16:59:20.708Z,99611.80
2023-07-07T17:04:28.748Z,99613.64
2023-07-07T17:09:38.765Z,99612.66
2023-07-07T17:14:47.624Z,99615.05
2023-07-07T17:19:55.496Z,99614.23
2023-07-07T17:25:02.812Z,99613.45
2023-07-07T17:30:23.108Z,99612.27
2023-07-07T17:35:30.931Z,99616.59
2023-07-07T17:40:41.454Z,99614.06
2023-07-07T17:45:48.914Z,99621.05
2023-07-07T17:50:58.307Z,99622.99
2023-07-07T17:56:07.066Z,99624.33
2023-07-07T18:01:15.776Z,99625.48
2023-07-07T18:06:28.715Z,99620.98
2023-07-07T18:11:35.931Z,99627.21
2023-07-07T18:16:49.617Z,99625.10
2023-07-07T18:22:07.337Z,99631.34
2023-07-07T18:27:15.182Z,99629.34
2023-07-07T18:32:22.948Z,99627.95
2023-07-07T18:37:30.252Z,99628.16
2023-07-07T18:42:37.788Z,99632.25
2023-07-07T18:47:45.693Z,99629.24
2023-07-07T18:52:53.273Z,99633.02
2023-07-07T18:58:01.294Z,99636.55
2023-07-07T19:03:12.868Z,99635.67
2023-07-07T19:08:24.200Z,99636.65
2023-07-07T19:13:31.987Z,99642.28
2023-07-07T19:18:42.286Z,99644.95
2023-07-07T19:23:49.576Z,99645.17
2023-07-07T19:28:58.092Z,99645.23
2023-07-07T19:34:08.036Z,99645.39
2023-07-07T19:39:19.299Z,99649.31
2023-07-07T19:44:33.311Z,99654.58
2023-07-07T19:49:43.564Z,99655.48
2023-07-07T19:54:51.066Z,99648.54
2023-07-07T19:59:58.618Z,99647.20
2023-07-07T20:05:06.600Z,99649.94
2023-07-07T20:10:20.524Z,99656.12
2023-07-07T20:15:27.735Z,99658.46
2023-07-07T20:20:34.981Z,99662.12
2023-07-07T20:25:42.451Z,99667.13
2023-07-07T20:30:57.368Z,99667.50
2023-07-07T20:36:04.921Z,99675.73
2023-07-07T20:41:15.952Z,99677.14
2023-07-07T20:52:14.715Z,99679.79
2023-07-07T20:57:20.439Z,99686.16
2023-07-07T21:02:25.384Z,99689.69
2023-07-07T21:07:29.423Z,99695.44
2023-07-07T21:12:34.747Z,99691.55
2023-07-07T21:17:39.281Z,99690.48
2023-07-07T21:22:43.877Z,99695.95
2023-07-07T21:27:48.118Z,99693.59
2023-07-07T21:32:53.148Z,99693.70
2023-07-07T21:37:57.644Z,99696.03
2023-07-07T21:43:04.631Z,99697.17
2023-07-07T21:48:19.087Z,99693.98
2023-07-07T21:53:25.789Z,99692.54
2023-07-07T21:58:32.180Z,99691.02
2023-07-07T22:03:40.775Z,99691.52
2023-07-07T22:08:46.232Z,99688.52
2023-07-07T22:13:57.968Z,99693.86
2023-07-07T22:19:02.990Z,99698.05
2023-07-07T22:24:07.829Z,99693.58
2023-07-07T22:29:14.759Z,99687.02
2023-07-07T22:34:19.021Z,99688.96
2023-07-07T22:39:23.704Z,99693.70
2023-07-07T22:44:27.873Z,99693.61
2023-07-07T22:49:32.647Z,99691.30
2023-07-07T22:54:36.649Z,99695.25
2023-07-07T22:59:40.896Z,99696.19
2023-07-07T23:04:44.796Z,99693.10
2023-07-07T23:09:49.352Z,99695.59
2023-07-07T23:14:53.348Z,99690.33
2023-07-07T23:20:00.150Z,99688.90
2023-07-07T23:25:06.945Z,99687.71
2023-07-07T23:30:22.419Z,99688.45
2023-07-07T23:35:27.779Z,99688.11
2023-07-07T23:40:33.371Z,99694.45
2023-07-07T23:45:38.707Z,99694.95
2023-07-07T23:51:00.815Z,99692.48
2023-07-07T23:56:14.711Z,99692.31
